Terminal Aerodrome Forecast
Issued by NWS Atlanta, GA

Home | Current Version | Previous Version | Text Only | Print | Product List | Glossary On
Versions: 1 2 3 4 5 6 7 8 9 10 11 12 13 14 15 16 17 18 19 20 21 22 23 24 25 26 27 28 29 30 31 32 33 34 35 36 37 38 39 40 41 42 43
000
FTUS42 KFFC 052334
TAFATL
TAF
KATL 052334Z 0600/0706 24010KT P6SM FEW045 SCT100
     FM060200 25005KT P6SM SCT100 BKN250
     FM060800 24004KT 6SM BR BKN012
     FM061000 25004KT 4SM BR BKN007
     FM061500 28008KT P6SM BKN012
     FM061700 24010KT P6SM BKN040 PROB30 0619/0623 5SM TSRA BKN025CB
     FM070200 28006KT P6SM SCT045 BKN250=

USA.gov is the U.S. government's official web portal to all federal, state and local government web resources and services.